Sedgwick Reserve, California Weather observations

Data are for 10 minute period ending at time listed.
 Day   Time   Solar   Ave.   Ave.  Ave.  Vector  Max.   Baro.   Total    
  of    of     Rad.   Air    Rel.  Wind   Wind   Wind  Press.  Precip.   
Year   Day            Temp.  Hum.  Speed  Dir.   Gust                    
2017   (PST)  Kw/m2    F      %     mph   deg.    mph    mb.     in.     
-------------------------------------------------------------------------
  83   17:00   0.07   57.1    63    8.0   299    14.0   979.9    0.00 
  83   17:10   0.08   56.8    64    7.7   283    13.2   979.9    0.00 
  83   17:20   0.06   56.7    65    7.1   290    13.7   979.8    0.00 
  83   17:30   0.04   56.5    65    4.7   286     9.1   979.7    0.00 
  83   17:40   0.03   56.2    65    6.0   276    10.7   979.6    0.00 
  83   17:50   0.02   56.0    64    4.1   294     8.8   979.6    0.00 
  83   18:00   0.01   55.8    64    4.7   308     9.5   979.5    0.00 
  83   18:10   0.00   55.4    63    2.8   305     6.7   979.4    0.00 
  83   18:20   0.00   55.2    61    3.3   304     7.1   979.5    0.00 
  83   18:30   0.00   54.9    61    2.7   301     6.9   979.5    0.00 
  83   18:40   0.00   54.8    59    0.8    39     2.3   979.6    0.00 
  83   18:50   0.00   54.9    56    2.0   326     5.1   979.7    0.00 
  83   19:00   0.00   55.1    54    2.8   320     5.2   979.8    0.00 
  83   19:10   0.00   55.1    53    3.4   317     8.5   979.9    0.00 
  83   19:20   0.00   54.9    54    4.3   293    11.3   980.0    0.00 
  83   19:30   0.00   54.7    55    4.0   304     7.9   979.9    0.00 
  83   19:40   0.00   54.4    57    2.7   349     4.8   979.8    0.00 
  83   19:50   0.00   54.2    58    1.5   297     2.6   979.9    0.00 
  83   20:00   0.00   54.0    61    2.2    63     5.0   979.8    0.00 
  83   20:10   0.00   52.6    67    1.3    66     5.4   979.8    0.00 
  83   20:20   0.00   52.8    66    1.1   137     2.8   979.7    0.00 
  83   20:30   0.00   52.8    66    1.2   145     2.9   979.6    0.00 
  83   20:40   0.00   52.8    67    0.7    74     1.8   979.6    0.00 
  83   20:50   0.00   52.4    69    0.5   253     1.6   979.8    0.00 
  83   21:00   0.00   51.8    74    3.6    30     5.8   979.9    0.00 
  83   21:10   0.00   51.4    75    1.7   330     4.2   979.9    0.00 
  83   21:20   0.00   51.8    75    3.7    29     5.3   979.8    0.00 
  83   21:30   0.00   51.4    78    1.4   258     2.6   979.7    0.00 
  83   21:40   0.00   51.1    81    2.1    58     3.5   979.6    0.00 
  83   21:50   0.00   50.6    83    1.2    62     3.7   979.4    0.00 
  83   22:00   0.00   50.7    85    3.4    72     5.3   979.1    0.00 
  83   22:10   0.00   51.0    85    2.8   212     6.0   978.9    0.00 
  83   22:20   0.00   50.9    85    9.1   254    16.2   979.1    0.00 
  83   22:30   0.00   50.9    85    8.2   286    14.0   979.8    0.00 
  83   22:40   0.00   51.2    88    6.2   292    13.6   980.2    0.00 
  83   22:50   0.00   51.4    90    4.0   307     7.5   980.3    0.00 
  83   23:00   0.00   51.3    88    4.5   343     8.5   980.2    0.00 
  83   23:10   0.00   51.1    88    5.2   325    10.4   980.1    0.00 
  83   23:20   0.00   51.0    88    4.8   306     9.1   980.0    0.00 
  83   23:30   0.00   51.2    89    4.3   312     9.7   979.7    0.00 
  83   23:40   0.00   51.2    90    1.9   350     5.6   979.5    0.01 
  83   23:50   0.00   51.0    91    1.1   266     3.0   979.3    0.00 
  84    0:00   0.00   50.9    91    1.4    95     2.9   979.1    0.00 
  84    0:10   0.00   50.7    92    3.6   200     6.0   979.0    0.00 
  84    0:20   0.00   50.4    92    2.7   110     5.0   978.9    0.00 
  84    0:30   0.00   50.1    93    1.1   135     3.4   979.0    0.00 
  84    0:40   0.00   49.9    93    1.0   258     2.0   979.0    0.00 
  84    0:50   0.00   49.1    93    3.3    12     5.0   978.8    0.00 
  84    1:00   0.00   48.6    95    2.4    12     4.7   978.7    0.00 
  84    1:10   0.00   48.8    95    1.0    51     2.4   978.7    0.00 
  84    1:20   0.00   48.5    95    1.6   298     2.7   978.7    0.00 
  84    1:30   0.00   48.6    96    3.0   296     4.0   978.7    0.00 
  84    1:40   0.00   48.6    96    2.9     2     3.9   978.8    0.00 
  84    1:50   0.00   48.8    96    2.4     9     4.5   978.8    0.00 
  84    2:00   0.00   48.9    96    3.1    16     4.7   978.5    0.00 
  84    2:10   0.00   49.0    96    1.9   298     3.4   978.3    0.00 
  84    2:20   0.00   49.3    96    0.8    72     1.8   978.1    0.00 
  84    2:30   0.00   49.2    96    1.2   272     2.0   977.8    0.00 
  84    2:40   0.00   48.9    96    3.8   268     5.0   977.7    0.00 
  84    2:50   0.00   49.0    96    2.9   276     5.8   977.7    0.00 
  84    3:00   0.00   49.0    94    1.7     4     3.7   977.6    0.00 
  84    3:10   0.00   49.2    94    1.9   295     3.5   977.7    0.00 
  84    3:20   0.00   49.2    94    2.6    36     4.7   977.6    0.00 
  84    3:30   0.00   49.0    95    2.8    14     4.4   977.4    0.00 
  84    3:40   0.00   49.4    95    0.7    94     3.1   977.3    0.00 
  84    3:50   0.00   49.4    95    0.4   247     1.6   977.2    0.00 
  84    4:00   0.00   49.4    95    1.2   262     3.1   977.1    0.00 
  84    4:10   0.00   49.3    94    1.7   310     3.9   977.0    0.00 
  84    4:20   0.00   49.3    95    2.1   324     4.5   977.0    0.00 
  84    4:30   0.00   49.5    94    1.2   339     2.8   977.0    0.00 
  84    4:40   0.00   49.4    94    1.5   360     3.3   977.0    0.00 
  84    4:50   0.00   49.4    95    1.7   348     2.9   976.9    0.00 
  84    5:00   0.00   49.6    95    1.0   320     1.6   976.9    0.00 
  84    5:10   0.00   49.8    95    1.0   341     2.9   976.8    0.00 
  84    5:20   0.00   49.8    96    3.1    10     5.2   976.7    0.00 
  84    5:30   0.00   49.9    96    2.3     5     5.0   976.7    0.00 
  84    5:40   0.00   50.1    96    1.6   320     3.7   976.8    0.00 
  84    5:50   0.00   50.1    96    0.8   307     2.2   976.8    0.00 
  84    6:00   0.00   50.2    96    1.3     5     2.7   976.8    0.00 
  84    6:10   0.01   50.1    96    0.8   288     1.9   976.8    0.00 
  84    6:20   0.01   50.3    96    0.7   272     1.6   976.8    0.01 
  84    6:30   0.01   50.4    96    1.6   283     2.2   976.9    0.01 
  84    6:40   0.01   50.7    96    0.8   296     2.3   977.0    0.00 
  84    6:50   0.01   51.0    97    2.9   291     6.5   977.1    0.00 
  84    7:00   0.01   51.1    97    4.2   298     7.5   977.3    0.01 
  84    7:10   0.03   51.3    97    3.3   277     5.4   977.5    0.00 
  84    7:20   0.08   51.4    97    2.6   259     4.1   977.7    0.00 
  84    7:30   0.10   51.8    97    2.2   278     4.2   977.7    0.00 
  84    7:40   0.15   52.2    97    1.3   302     2.7   977.7    0.00 
  84    7:50   0.18   53.1    97    1.9   251     5.3   977.8    0.00 
  84    8:00   0.09   52.9    96    3.9   238     6.1   977.7    0.00 
  84    8:10   0.09   52.5    96    4.8   248     6.4   977.7    0.00 
  84    8:20   0.14   53.0    96    4.0   256     6.9   977.7    0.00 
  84    8:30   0.13   53.1    95    5.7   267     9.5   977.6    0.00 
  84    8:40   0.39   54.1    94    4.5   265     7.6   977.5    0.00 
  84    8:50   0.40   54.4    89    7.4   269    10.4   977.5    0.00 
  84    9:00   0.17   54.3    88    6.3   269    10.2   977.5    0.00 
  84    9:10   0.32   54.8    86    7.2   264    10.4   977.5    0.00 
  84    9:20   0.56   55.2    86    5.7   255     9.1   977.5    0.00 
  84    9:30   0.50   56.4    82    6.1   267     8.3   977.5    0.00 
  84    9:40   0.61   56.7    81    5.4   268    12.8   977.4    0.00 
  84    9:50   0.60   56.9    79    8.0   262    13.2   977.4    0.00 
  84   10:00   0.48   57.0    79    5.6   269     9.8   977.3    0.00 
  84   10:10   0.86   57.7    77    5.7   245     9.4   977.3    0.00 
  84   10:20   0.41   58.4    76    5.6   275    12.2   977.3    0.00 
  84   10:30   0.86   58.2    74    7.2   258     9.9   977.3    0.00 
  84   10:40   0.68   59.1    73    7.4   270    11.9   977.3    0.00 
  84   10:50   0.30   58.4    74    5.4   264     9.9   977.3    0.00 
  84   11:00   0.94   60.0    72    6.1   262    11.5   977.3    0.00 
  84   11:10   1.05   60.7    68    5.9   267    11.6   977.1    0.00 
  84   11:20   0.81   62.0    66    6.2   252    15.1   976.9    0.00 
  84   11:30   0.64   60.4    67    8.1   253    16.4   976.7    0.00 
  84   11:40   0.59   61.0    66    9.9   266    15.5   976.7    0.00 
  84   11:50   0.94   62.2    65    9.3   275    15.9   976.7    0.00 
  84   12:00   0.86   62.8    64   11.6   262    21.5   976.6    0.00 
  84   12:10   0.82   62.8    63   10.2   282    17.6   976.5    0.00 
  84   12:20   0.87   63.4    63   11.8   288    18.0   976.4    0.00 
  84   12:30   0.91   63.8    63   12.5   289    18.6   976.3    0.00 
  84   12:40   0.92   63.3    64   13.6   292    22.5   976.2    0.00 
  84   12:50   0.92   63.3    65   13.6   298    20.9   976.2    0.00 
  84   13:00   0.86   63.0    65   13.5   287    22.4   976.0    0.00 
  84   13:10   0.82   62.7    68   14.3   296    24.5   975.9    0.00 
  84   13:20   0.80   62.6    68   14.2   292    24.8   975.7    0.00 
  84   13:30   0.71   63.7    67   12.3   296    23.0   975.6    0.00 
  84   13:40   0.77   63.1    67   13.8   299    25.4   975.6    0.00 
  84   13:50   0.75   63.1    67   14.5   304    22.7   975.4    0.00 
  84   14:00   0.72   62.7    68   13.0   296    24.5   975.3    0.00 
  84   14:10   0.68   62.7    69   12.7   299    21.5   975.3    0.00 
  84   14:20   0.64   62.5    69   13.9   298    21.6   975.2    0.00 
  84   14:30   0.65   62.2    70   14.2   296    23.1   975.2    0.00 
  84   14:40   0.63   62.6    70   12.8   294    23.2   975.3    0.00 
  84   14:50   0.63   61.5    71   14.1   300    23.8   975.3    0.00 
  84   15:00   0.40   62.0    70   12.1   305    19.4   975.3    0.00 
  84   15:10   0.48   60.8    72   13.2   291    22.7   975.3    0.00 
  84   15:20   0.50   61.2    71   13.8   292    22.0   975.3    0.00 
  84   15:30   0.40   60.9    72   13.0   291    23.2   975.2    0.00 
  84   15:40   0.37   59.8    74   12.9   298    21.2   975.1    0.00 
  84   15:50   0.42   60.9    72   10.8   304    18.8   975.1    0.00 
  84   16:00   0.21   60.5    72   11.2   305    19.8   975.1    0.00 
  84   16:10   0.15   58.8    75   11.0   297    21.0   975.1    0.00 
  84   16:20   0.31   58.9    74   12.2   286    20.7   975.3    0.00 
  84   16:30   0.28   59.6    72   11.8   283    19.1   975.2    0.00 
  84   16:40   0.23   59.5    73   12.5   282    18.8   975.2    0.00 
  84   16:50   0.15   58.8    74   10.7   291    19.9   975.1    0.00 

Return to Sedgwick Reserve graphs page.


Western Regional Climate Center,wrcc@dri.edu